Disclaimer

Please do not use the information listed here in-flight or in-navigation, as they are not provided to us by the airports but are provided by volunteers, so they might be outdated.

Search


Regions


Airport information page

No radio frequency information is available.

Airport informations:
Latitude: 61° 24' 50.93" N
Longitude: 023° 36' 15.81" E
Elevation: 390 feet - 119 meters
Operating hours: N/A
Operating agency: Military-civil joint use airport
Timezone: UTC+2(+3DT)
Fuel: Jet A1, without icing nhibitor.

100/130 MIL Spec, low lead, aviation gasoline (BLUE)

Runway information:
06/24 - 8858 x 148 feet< - >2700 x 45 meters

Recent METARs:
EFTP 160650Z 21009KT 7000 -DZ FEW004 BKN007 08/08 Q1031
EFTP 160720Z 21010KT 9999 BKN006 08/08 Q1031
EFTP 160750Z 22012KT 9999 BKN006 08/08 Q1031

Airport on the map: